createdAt,value
2019-06-08T00:00:02.507Z,85.35
2019-06-08T00:01:02.510Z,85.25
2019-06-08T00:02:02.513Z,84.97
2019-06-08T00:03:02.500Z,84.58
2019-06-08T00:04:02.498Z,85.25
2019-06-08T00:05:02.506Z,84.97
2019-06-08T00:06:02.496Z,85.06
2019-06-08T00:07:02.496Z,84.30
2019-06-08T00:08:02.495Z,83.63
2019-06-08T00:09:02.496Z,84.58
2019-06-08T00:10:02.494Z,84.49
2019-06-08T00:11:02.496Z,83.82
2019-06-08T00:12:02.491Z,83.92
2019-06-08T00:13:02.490Z,84.68
2019-06-08T00:14:02.488Z,84.01
2019-06-08T00:15:02.487Z,83.82
2019-06-08T00:16:02.487Z,83.63
2019-06-08T00:17:02.487Z,83.53
2019-06-08T00:18:02.486Z,84.30
2019-06-08T00:19:02.483Z,84.01
2019-06-08T00:20:02.486Z,83.34
2019-06-08T00:21:02.483Z,83.72
2019-06-08T00:22:02.480Z,83.25
2019-06-08T00:23:02.479Z,83.05
2019-06-08T00:24:02.480Z,82.57
2019-06-08T00:25:02.612Z,82.57
2019-06-08T00:26:02.476Z,83.05
2019-06-08T00:27:02.475Z,83.15
2019-06-08T00:28:02.487Z,83.25
2019-06-08T00:29:02.475Z,83.05
2019-06-08T00:30:02.676Z,82.76
2019-06-08T00:31:02.472Z,82.67
2019-06-08T00:32:02.471Z,82.15
2019-06-08T00:33:02.477Z,82.15
2019-06-08T00:34:02.469Z,82.15
2019-06-08T00:35:02.472Z,82.34
2019-06-08T00:36:02.501Z,82.24
2019-06-08T00:37:02.465Z,83.30
2019-06-08T00:38:02.463Z,83.11
2019-06-08T00:39:02.463Z,83.87
2019-06-08T00:40:02.463Z,84.58
2019-06-08T00:41:02.462Z,84.97
2019-06-08T00:42:02.462Z,84.30
2019-06-08T00:43:02.458Z,84.26
2019-06-08T00:44:02.457Z,84.20
2019-06-08T00:45:02.458Z,84.06
2019-06-08T00:46:02.459Z,84.35
2019-06-08T00:47:02.453Z,84.55
2019-06-08T00:48:02.460Z,84.92
2019-06-08T00:49:02.454Z,85.21
2019-06-08T00:50:02.451Z,84.45
2019-06-08T00:51:02.453Z,84.58
2019-06-08T00:52:02.449Z,84.35
2019-06-08T00:53:02.448Z,84.35
2019-06-08T00:54:02.445Z,84.26
2019-06-08T00:55:02.445Z,83.87
2019-06-08T00:56:02.446Z,84.55
2019-06-08T00:57:02.443Z,84.45
2019-06-08T00:58:02.443Z,84.55
2019-06-08T00:59:02.441Z,84.06
2019-06-08T01:00:10.389Z,84.16
2019-06-08T01:01:02.441Z,84.16
2019-06-08T01:02:02.439Z,83.97
2019-06-08T01:03:02.438Z,84.16
2019-06-08T01:04:02.450Z,83.97
2019-06-08T01:05:02.437Z,83.59
2019-06-08T01:06:02.431Z,85.50
2019-06-08T01:07:02.431Z,85.79
2019-06-08T01:08:02.503Z,85.41
2019-06-08T01:09:02.429Z,85.50
2019-06-08T01:10:02.428Z,85.50
2019-06-08T01:11:02.434Z,85.98
2019-06-08T01:12:02.426Z,86.12
2019-06-08T01:13:02.424Z,85.88
2019-06-08T01:14:02.422Z,85.93
2019-06-08T01:15:02.716Z,85.93
2019-06-08T01:16:02.419Z,86.31
2019-06-08T01:17:02.419Z,86.50
2019-06-08T01:18:04.203Z,86.69
2019-06-08T01:19:02.416Z,86.50
2019-06-08T01:20:02.416Z,86.98
2019-06-08T01:21:02.416Z,87.65
2019-06-08T01:22:02.423Z,87.74
2019-06-08T01:23:02.410Z,87.55
2019-06-08T01:24:02.412Z,87.27
2019-06-08T01:25:02.410Z,87.55
2019-06-08T01:26:02.407Z,87.94
2019-06-08T01:27:02.407Z,88.32
2019-06-08T01:28:02.405Z,88.03
2019-06-08T01:29:02.438Z,87.37
2019-06-08T01:30:02.405Z,87.94
2019-06-08T01:31:02.407Z,87.94
2019-06-08T01:32:02.400Z,88.32
2019-06-08T01:33:02.402Z,88.42
2019-06-08T01:34:02.398Z,88.13
2019-06-08T01:35:02.399Z,88.13
2019-06-08T01:36:02.402Z,87.74
2019-06-08T01:37:02.401Z,88.23
2019-06-08T01:38:02.395Z,87.74
2019-06-08T01:39:02.394Z,88.80
2019-06-08T01:40:02.399Z,87.41
2019-06-08T01:41:02.395Z,87.88
2019-06-08T01:42:02.392Z,88.13
2019-06-08T01:43:02.397Z,88.08
2019-06-08T01:44:02.395Z,87.70
2019-06-08T01:45:02.554Z,88.03
2019-06-08T01:46:02.394Z,87.79
2019-06-08T01:47:02.385Z,87.08
2019-06-08T01:48:16.005Z,87.50
2019-06-08T01:49:02.385Z,87.98
2019-06-08T01:50:02.382Z,87.12
2019-06-08T01:51:02.383Z,86.64
2019-06-08T01:52:02.381Z,86.07
2019-06-08T01:53:02.380Z,85.58
2019-06-08T01:54:02.379Z,85.39
2019-06-08T01:55:02.378Z,85.78
2019-06-08T01:56:02.377Z,85.49
2019-06-08T01:57:02.377Z,85.58
2019-06-08T01:58:02.379Z,84.91
2019-06-08T01:59:02.376Z,84.82
2019-06-08T02:00:28.741Z,84.91
2019-06-08T02:01:02.374Z,84.82
2019-06-08T02:02:02.375Z,84.82
2019-06-08T02:03:02.373Z,85.01
2019-06-08T02:04:02.376Z,84.91
2019-06-08T02:05:02.370Z,85.01
2019-06-08T02:06:02.388Z,85.21
2019-06-08T02:07:02.368Z,85.39
2019-06-08T02:08:02.367Z,85.49
2019-06-08T02:09:02.364Z,85.21
2019-06-08T02:10:02.369Z,85.58
2019-06-08T02:11:02.410Z,85.88
2019-06-08T02:12:02.364Z,85.68
2019-06-08T02:13:02.361Z,85.74
2019-06-08T02:14:02.361Z,85.49
2019-06-08T02:15:02.358Z,85.78
2019-06-08T02:16:02.358Z,85.74
2019-06-08T02:17:02.358Z,86.35
2019-06-08T02:18:02.357Z,85.68
2019-06-08T02:19:02.357Z,85.93
2019-06-08T02:20:02.359Z,85.78
2019-06-08T02:21:02.354Z,86.07
2019-06-08T02:22:02.356Z,85.49
2019-06-08T02:23:02.352Z,85.49
2019-06-08T02:24:02.362Z,84.91
2019-06-08T02:25:02.356Z,85.01
2019-06-08T02:26:02.350Z,85.39
2019-06-08T02:27:02.357Z,85.78
2019-06-08T02:28:02.380Z,85.21
2019-06-08T02:29:02.349Z,85.16
2019-06-08T02:30:02.353Z,85.11
2019-06-08T02:31:02.345Z,85.21
2019-06-08T02:32:02.345Z,84.91
2019-06-08T02:33:02.357Z,84.78
2019-06-08T02:34:02.346Z,84.91
2019-06-08T02:35:02.342Z,84.97
2019-06-08T02:36:02.341Z,84.63
2019-06-08T02:37:02.341Z,84.68
2019-06-08T02:38:02.344Z,84.88
2019-06-08T02:39:02.341Z,85.39
2019-06-08T02:40:02.353Z,85.21
2019-06-08T02:41:02.338Z,84.88
2019-06-08T02:42:02.335Z,85.06
2019-06-08T02:43:02.333Z,84.01
2019-06-08T02:44:02.336Z,84.01
2019-06-08T02:45:02.344Z,84.11
2019-06-08T02:46:02.332Z,84.01
2019-06-08T02:47:02.332Z,84.11
2019-06-08T02:48:02.330Z,84.20
2019-06-08T02:49:04.608Z,84.20
2019-06-08T02:50:02.328Z,83.72
2019-06-08T02:51:02.326Z,83.72
2019-06-08T02:52:02.326Z,83.82
2019-06-08T02:53:02.325Z,83.72
2019-06-08T02:54:02.329Z,83.53
2019-06-08T02:55:02.332Z,83.25
2019-06-08T02:56:02.334Z,83.53
2019-06-08T02:57:02.341Z,82.76
2019-06-08T02:58:02.321Z,82.48
2019-06-08T02:59:02.321Z,82.67
2019-06-08T03:00:02.326Z,82.67
2019-06-08T03:01:02.321Z,82.67
2019-06-08T03:02:02.316Z,82.76
2019-06-08T03:03:02.330Z,82.86
2019-06-08T03:04:02.319Z,83.25
2019-06-08T03:05:02.315Z,83.63
2019-06-08T03:06:02.323Z,83.25
2019-06-08T03:07:02.315Z,83.25
2019-06-08T03:08:02.310Z,83.53
2019-06-08T03:09:02.312Z,83.72
2019-06-08T03:10:02.311Z,83.92
2019-06-08T03:11:02.309Z,83.82
2019-06-08T03:12:02.309Z,83.63
2019-06-08T03:13:02.306Z,83.53
2019-06-08T03:14:02.306Z,83.53
2019-06-08T03:15:02.305Z,83.44
2019-06-08T03:16:02.310Z,83.63
2019-06-08T03:17:02.305Z,83.72
2019-06-08T03:18:02.302Z,83.82
2019-06-08T03:19:19.999Z,83.72
2019-06-08T03:20:02.301Z,84.20
2019-06-08T03:21:02.298Z,83.82
2019-06-08T03:22:02.301Z,84.20
2019-06-08T03:23:02.298Z,83.53
2019-06-08T03:24:02.299Z,83.72
2019-06-08T03:25:02.303Z,84.30
2019-06-08T03:26:02.293Z,84.20
2019-06-08T03:27:02.292Z,84.01
2019-06-08T03:28:02.301Z,83.72
2019-06-08T03:29:02.301Z,83.63
2019-06-08T03:30:15.248Z,83.72
2019-06-08T03:31:02.289Z,83.15
2019-06-08T03:32:02.289Z,83.92
2019-06-08T03:33:02.287Z,83.82
2019-06-08T03:34:02.285Z,83.82
2019-06-08T03:35:02.299Z,83.53
2019-06-08T03:36:02.286Z,83.15
2019-06-08T03:37:02.288Z,83.92
2019-06-08T03:38:02.280Z,83.82
2019-06-08T03:39:02.279Z,83.44
2019-06-08T03:40:02.288Z,83.92
2019-06-08T03:41:02.277Z,83.72
2019-06-08T03:42:02.274Z,83.82
2019-06-08T03:43:02.274Z,83.82
2019-06-08T03:44:02.274Z,83.72
2019-06-08T03:45:02.274Z,83.44
2019-06-08T03:46:02.274Z,83.53
2019-06-08T03:47:02.297Z,83.92
2019-06-08T03:48:02.274Z,83.72
2019-06-08T03:49:02.271Z,83.82
2019-06-08T03:50:02.275Z,83.63
2019-06-08T03:51:02.267Z,83.82
2019-06-08T03:52:02.267Z,83.44
2019-06-08T03:53:02.265Z,83.82
2019-06-08T03:54:02.262Z,83.05
2019-06-08T03:55:02.262Z,83.11
2019-06-08T03:56:02.271Z,83.01
2019-06-08T03:57:02.270Z,83.11
2019-06-08T03:58:02.281Z,83.20
2019-06-08T03:59:02.258Z,83.30
2019-06-08T04:00:02.269Z,83.01
2019-06-08T04:01:02.262Z,83.87
2019-06-08T04:02:02.263Z,83.20
2019-06-08T04:03:02.253Z,83.25
2019-06-08T04:04:02.252Z,83.01
2019-06-08T04:05:02.253Z,83.30
2019-06-08T04:06:02.250Z,83.11
2019-06-08T04:07:02.250Z,82.92
2019-06-08T04:08:02.247Z,83.59
2019-06-08T04:09:02.247Z,83.49
2019-06-08T04:10:02.244Z,83.20
2019-06-08T04:11:02.243Z,83.97
2019-06-08T04:12:02.247Z,83.30
2019-06-08T04:13:02.244Z,83.01
2019-06-08T04:14:02.249Z,84.06
2019-06-08T04:15:02.242Z,83.59
2019-06-08T04:16:02.236Z,83.59
2019-06-08T04:17:02.241Z,83.78
2019-06-08T04:18:02.235Z,83.20
2019-06-08T04:19:02.233Z,83.39
2019-06-08T04:20:10.455Z,83.87
2019-06-08T04:21:02.232Z,83.87
2019-06-08T04:22:02.231Z,84.06
2019-06-08T04:23:02.231Z,83.01
2019-06-08T04:24:02.227Z,83.01
2019-06-08T04:25:02.227Z,83.20
2019-06-08T04:26:02.225Z,83.87
2019-06-08T04:27:02.224Z,83.20
2019-06-08T04:28:02.231Z,83.01
2019-06-08T04:29:02.222Z,83.20
2019-06-08T04:30:02.219Z,82.63
2019-06-08T04:31:02.220Z,83.20
2019-06-08T04:32:02.220Z,82.82
2019-06-08T04:33:02.216Z,82.92
2019-06-08T04:34:02.220Z,82.63
2019-06-08T04:35:02.222Z,82.53
2019-06-08T04:36:02.218Z,82.24
2019-06-08T04:37:02.215Z,82.43
2019-06-08T04:38:02.226Z,81.67
2019-06-08T04:39:02.210Z,82.43
2019-06-08T04:40:02.208Z,82.24
2019-06-08T04:41:02.207Z,82.53
2019-06-08T04:42:02.204Z,82.82
2019-06-08T04:43:02.205Z,83.01
2019-06-08T04:44:02.202Z,82.73
2019-06-08T04:45:02.202Z,82.73
2019-06-08T04:46:02.212Z,82.73
2019-06-08T04:47:02.200Z,83.11
2019-06-08T04:48:02.197Z,83.49
2019-06-08T04:49:02.200Z,83.20
2019-06-08T04:50:20.960Z,83.78
2019-06-08T04:51:02.192Z,83.59
2019-06-08T04:52:02.195Z,83.59
2019-06-08T04:53:02.192Z,83.39
2019-06-08T04:54:02.190Z,83.68
2019-06-08T04:55:02.197Z,83.87
2019-06-08T04:56:02.186Z,83.68
2019-06-08T04:57:02.192Z,84.06
2019-06-08T04:58:02.185Z,84.06
2019-06-08T04:59:02.186Z,84.16
2019-06-08T05:00:11.345Z,83.87
2019-06-08T05:01:02.182Z,83.87
2019-06-08T05:02:02.185Z,84.16
2019-06-08T05:03:02.179Z,83.97
2019-06-08T05:04:02.179Z,83.87
2019-06-08T05:05:02.177Z,84.74
2019-06-08T05:06:02.177Z,83.78
2019-06-08T05:07:02.175Z,83.78
2019-06-08T05:08:02.171Z,83.68
2019-06-08T05:09:02.179Z,83.68
2019-06-08T05:10:02.169Z,84.16
2019-06-08T05:11:02.166Z,84.06
2019-06-08T05:12:02.170Z,84.45
2019-06-08T05:13:02.170Z,84.06
2019-06-08T05:14:02.162Z,84.64
2019-06-08T05:15:02.185Z,84.74
2019-06-08T05:16:02.161Z,84.83
2019-06-08T05:17:02.159Z,85.12
2019-06-08T05:18:02.162Z,84.64
2019-06-08T05:19:02.157Z,84.83
2019-06-08T05:20:02.157Z,84.74
2019-06-08T05:21:02.165Z,84.64
2019-06-08T05:22:02.169Z,84.83
2019-06-08T05:23:02.155Z,84.74
2019-06-08T05:24:02.160Z,85.12
2019-06-08T05:25:02.150Z,84.74
2019-06-08T05:26:02.147Z,84.64
2019-06-08T05:27:02.147Z,84.64
2019-06-08T05:28:02.145Z,84.83
2019-06-08T05:29:02.152Z,84.74
2019-06-08T05:30:08.494Z,84.83
2019-06-08T05:31:02.140Z,85.31
2019-06-08T05:32:02.140Z,84.83
2019-06-08T05:33:02.144Z,84.92
2019-06-08T05:34:02.136Z,84.92
2019-06-08T05:35:02.140Z,84.74
2019-06-08T05:36:02.135Z,85.60
2019-06-08T05:37:02.142Z,84.64
2019-06-08T05:38:02.133Z,84.64
2019-06-08T05:39:02.160Z,84.92
2019-06-08T05:40:02.131Z,84.74
2019-06-08T05:41:02.129Z,84.74
2019-06-08T05:42:02.127Z,84.64
2019-06-08T05:43:02.125Z,84.83
2019-06-08T05:44:02.127Z,84.55
2019-06-08T05:45:02.124Z,84.83
2019-06-08T05:46:02.123Z,85.41
2019-06-08T05:47:02.121Z,84.92
2019-06-08T05:48:02.142Z,84.92
2019-06-08T05:49:02.119Z,85.50
2019-06-08T05:50:02.117Z,85.12
2019-06-08T05:51:04.157Z,85.79
2019-06-08T05:52:02.116Z,85.60
2019-06-08T05:53:02.115Z,85.41
2019-06-08T05:54:03.080Z,85.60
2019-06-08T05:55:02.124Z,85.60
2019-06-08T05:56:02.114Z,85.21
2019-06-08T05:57:02.110Z,85.31
2019-06-08T05:58:02.107Z,85.21
2019-06-08T05:59:02.109Z,85.21
2019-06-08T06:00:08.447Z,85.69
2019-06-08T06:01:02.108Z,85.12
2019-06-08T06:02:02.103Z,84.83
2019-06-08T06:03:02.107Z,85.12
2019-06-08T06:04:02.101Z,85.60
2019-06-08T06:05:02.099Z,85.02
2019-06-08T06:06:02.099Z,85.50
2019-06-08T06:07:02.096Z,84.92
2019-06-08T06:08:02.127Z,85.41
2019-06-08T06:09:02.095Z,84.92
2019-06-08T06:10:02.113Z,85.50
2019-06-08T06:11:02.091Z,85.79
2019-06-08T06:12:02.094Z,85.69
2019-06-08T06:13:02.093Z,85.60
2019-06-08T06:14:02.088Z,85.50
2019-06-08T06:15:02.089Z,85.88
2019-06-08T06:16:02.098Z,85.31
2019-06-08T06:17:02.085Z,85.98
2019-06-08T06:18:02.084Z,85.60
2019-06-08T06:19:02.088Z,85.41
2019-06-08T06:20:02.086Z,85.31
2019-06-08T06:21:10.817Z,85.41
2019-06-08T06:22:02.080Z,85.31
2019-06-08T06:23:02.077Z,85.41
2019-06-08T06:24:02.075Z,85.50
2019-06-08T06:25:02.094Z,85.60
2019-06-08T06:26:02.072Z,85.12
2019-06-08T06:27:02.070Z,85.60
2019-06-08T06:28:04.039Z,85.12
2019-06-08T06:29:02.143Z,85.60
2019-06-08T06:30:02.213Z,85.50
2019-06-08T06:31:02.069Z,85.50
2019-06-08T06:32:02.065Z,85.46
2019-06-08T06:33:02.064Z,85.60
2019-06-08T06:34:02.067Z,85.79
2019-06-08T06:35:02.062Z,85.21
2019-06-08T06:36:02.073Z,85.69
2019-06-08T06:37:02.058Z,85.46
2019-06-08T06:38:02.061Z,85.75
2019-06-08T06:39:02.055Z,85.84
2019-06-08T06:40:02.056Z,85.65
2019-06-08T06:41:02.064Z,85.08
2019-06-08T06:42:02.052Z,85.55
2019-06-08T06:43:02.050Z,85.75
2019-06-08T06:44:02.070Z,85.84
2019-06-08T06:45:02.049Z,85.94
2019-06-08T06:46:02.047Z,85.94
2019-06-08T06:47:02.047Z,86.13
2019-06-08T06:48:02.046Z,86.22
2019-06-08T06:49:02.042Z,85.84
2019-06-08T06:50:02.087Z,85.84
2019-06-08T06:51:02.071Z,86.22
2019-06-08T06:52:02.038Z,86.04
2019-06-08T06:53:02.040Z,86.04
2019-06-08T06:54:03.296Z,86.22
2019-06-08T06:55:02.034Z,85.84
2019-06-08T06:56:02.054Z,86.04
2019-06-08T06:57:02.099Z,86.13
2019-06-08T06:58:02.036Z,85.84
2019-06-08T06:59:02.032Z,86.61
2019-06-08T07:00:02.031Z,85.75
2019-06-08T07:01:02.074Z,86.13
2019-06-08T07:02:02.025Z,86.04
2019-06-08T07:03:02.026Z,86.22
2019-06-08T07:04:02.023Z,86.32
2019-06-08T07:05:02.115Z,86.61
2019-06-08T07:06:02.022Z,86.51
2019-06-08T07:07:02.035Z,86.32
2019-06-08T07:08:02.017Z,86.61
2019-06-08T07:09:02.014Z,86.41
2019-06-08T07:10:02.013Z,86.80
2019-06-08T07:11:02.014Z,86.41
2019-06-08T07:12:02.010Z,86.32
2019-06-08T07:13:02.062Z,86.99
2019-06-08T07:14:02.007Z,86.46
2019-06-08T07:15:02.005Z,86.61
2019-06-08T07:16:17.244Z,86.27
2019-06-08T07:17:02.004Z,86.61
2019-06-08T07:18:02.006Z,86.22
2019-06-08T07:19:02.040Z,86.61
2019-06-08T07:20:02.004Z,86.32
2019-06-08T07:21:01.999Z,86.65
2019-06-08T07:22:01.999Z,86.32
2019-06-08T07:23:01.996Z,86.22
2019-06-08T07:24:01.994Z,86.80
2019-06-08T07:25:02.000Z,86.61
2019-06-08T07:26:01.991Z,86.61
2019-06-08T07:27:01.990Z,86.41
2019-06-08T07:28:01.991Z,86.22
2019-06-08T07:29:01.988Z,86.61
2019-06-08T07:30:02.040Z,86.90
2019-06-08T07:31:01.983Z,87.27
2019-06-08T07:32:01.984Z,86.41
2019-06-08T07:33:01.982Z,86.99
2019-06-08T07:34:01.979Z,86.13
2019-06-08T07:35:01.981Z,86.90
2019-06-08T07:36:01.977Z,86.80
2019-06-08T07:37:01.977Z,86.51
2019-06-08T07:38:02.035Z,86.80
2019-06-08T07:39:01.976Z,87.37
2019-06-08T07:40:01.984Z,86.99
2019-06-08T07:41:01.987Z,87.18
2019-06-08T07:42:01.971Z,87.08
2019-06-08T07:43:01.968Z,86.90
2019-06-08T07:44:01.966Z,87.37
2019-06-08T07:45:01.971Z,86.51
2019-06-08T07:46:01.963Z,86.70
2019-06-08T07:47:01.965Z,86.61
2019-06-08T07:48:01.963Z,87.27
2019-06-08T07:49:01.962Z,87.37
2019-06-08T07:50:04.666Z,87.47
2019-06-08T07:51:02.005Z,87.37
2019-06-08T07:52:09.493Z,87.18
2019-06-08T07:53:01.955Z,87.18
2019-06-08T07:54:01.955Z,87.18
2019-06-08T07:55:01.978Z,87.18
2019-06-08T07:56:01.953Z,87.08
2019-06-08T07:57:01.950Z,87.37
2019-06-08T07:58:01.948Z,86.99
2019-06-08T07:59:01.945Z,87.18
2019-06-08T08:00:08.801Z,87.18
2019-06-08T08:01:07.651Z,87.47
2019-06-08T08:02:01.941Z,87.08
2019-06-08T08:03:01.943Z,87.66
2019-06-08T08:04:01.940Z,87.13
2019-06-08T08:05:01.938Z,87.37
2019-06-08T08:06:01.935Z,87.18
2019-06-08T08:07:01.934Z,87.37
2019-06-08T08:08:01.946Z,87.56
2019-06-08T08:09:01.936Z,87.18
2019-06-08T08:10:01.969Z,87.23
2019-06-08T08:11:01.931Z,87.23
2019-06-08T08:12:01.932Z,86.55
2019-06-08T08:13:01.927Z,87.47
2019-06-08T08:14:01.925Z,87.66
2019-06-08T08:15:01.924Z,87.27
2019-06-08T08:16:01.924Z,86.61
2019-06-08T08:17:01.922Z,86.70
2019-06-08T08:18:01.923Z,86.41
2019-06-08T08:19:01.918Z,87.37
2019-06-08T08:20:01.923Z,86.51
2019-06-08T08:21:09.157Z,86.13
2019-06-08T08:22:18.673Z,86.99
2019-06-08T08:23:05.810Z,87.18
2019-06-08T08:24:01.943Z,86.32
2019-06-08T08:25:04.691Z,86.61
2019-06-08T08:26:02.032Z,85.55
2019-06-08T08:27:03.704Z,85.08
2019-06-08T08:28:01.909Z,83.26
2019-06-08T08:29:03.192Z,84.98
2019-06-08T08:30:02.242Z,82.87
2019-06-08T08:31:02.009Z,82.78
2019-06-08T08:32:02.113Z,81.25
2019-06-08T08:33:03.193Z,83.16
2019-06-08T08:34:05.685Z,84.88
2019-06-08T08:35:02.962Z,84.41
2019-06-08T08:36:02.124Z,80.96
2019-06-08T08:37:05.923Z,83.16
2019-06-08T08:38:04.454Z,84.31
2019-06-08T08:39:02.617Z,84.31
2019-06-08T08:40:01.902Z,85.46
2019-06-08T08:41:07.306Z,85.36
2019-06-08T08:42:04.520Z,86.32
2019-06-08T08:43:01.909Z,86.70
2019-06-08T08:44:04.269Z,86.70
2019-06-08T08:45:05.074Z,86.32
2019-06-08T08:46:02.069Z,86.51
2019-06-08T08:47:02.873Z,87.18
2019-06-08T08:48:20.661Z,87.70
2019-06-08T08:49:09.396Z,87.03
2019-06-08T08:50:02.145Z,86.84
2019-06-08T08:51:03.709Z,88.18
2019-06-08T08:52:01.971Z,88.28
2019-06-08T08:53:02.439Z,88.28
2019-06-08T08:54:04.886Z,88.76
2019-06-08T08:55:02.202Z,88.66
2019-06-08T08:56:02.496Z,88.28
2019-06-08T08:57:04.974Z,87.70
2019-06-08T08:58:02.205Z,86.94
2019-06-08T08:59:02.874Z,87.80
2019-06-08T09:00:05.031Z,87.41
2019-06-08T09:01:03.634Z,87.90
2019-06-08T09:02:02.993Z,87.51
2019-06-08T09:04:04.811Z,87.13
2019-06-08T09:05:03.476Z,88.09
2019-06-08T09:06:03.826Z,87.99
2019-06-08T09:07:05.612Z,87.70
2019-06-08T09:08:02.633Z,87.99
2019-06-08T09:09:03.264Z,88.18
2019-06-08T09:10:03.617Z,88.28
2019-06-08T09:11:03.574Z,89.23
2019-06-08T09:12:04.336Z,88.95
2019-06-08T09:13:04.215Z,88.76
2019-06-08T09:14:05.211Z,88.66
2019-06-08T09:15:03.534Z,88.37
2019-06-08T09:16:03.997Z,87.80
2019-06-08T09:17:03.391Z,88.76
2019-06-08T09:18:03.685Z,88.03
2019-06-08T09:19:04.250Z,88.51
2019-06-08T09:20:03.652Z,88.03
2019-06-08T09:21:02.866Z,88.13
2019-06-08T09:22:03.861Z,88.23
2019-06-08T09:23:12.034Z,88.03
2019-06-08T09:24:03.848Z,87.65
2019-06-08T09:25:04.316Z,87.74
2019-06-08T09:26:09.030Z,88.03
2019-06-08T09:27:04.037Z,88.70
2019-06-08T09:28:04.463Z,87.84
2019-06-08T09:29:06.721Z,88.27
2019-06-08T09:30:04.415Z,87.60
2019-06-08T09:31:02.763Z,86.83
2019-06-08T09:32:03.156Z,86.83
2019-06-08T09:33:02.912Z,86.68
2019-06-08T09:34:09.166Z,86.30
2019-06-08T09:35:04.396Z,86.15
2019-06-08T09:36:04.733Z,85.38
2019-06-08T09:37:03.489Z,83.94
2019-06-08T09:38:04.763Z,84.23
2019-06-08T09:39:03.659Z,84.14
2019-06-08T09:40:02.583Z,83.65
2019-06-08T09:41:04.804Z,83.56
2019-06-08T09:42:03.495Z,84.04
2019-06-08T09:43:07.433Z,83.27
2019-06-08T09:44:04.469Z,83.18
2019-06-08T09:45:04.253Z,83.37
2019-06-08T09:46:04.197Z,83.23
2019-06-08T09:47:07.354Z,83.71
2019-06-08T09:48:04.348Z,83.58
2019-06-08T09:49:07.660Z,83.76
2019-06-08T09:50:03.665Z,83.76
2019-06-08T09:51:04.114Z,83.86
2019-06-08T09:52:03.295Z,84.15
2019-06-08T09:53:17.979Z,84.15
2019-06-08T09:54:05.720Z,84.15
2019-06-08T09:55:03.727Z,83.95
2019-06-08T09:56:05.330Z,83.95
2019-06-08T09:57:03.890Z,83.86
2019-06-08T09:58:05.192Z,84.88
2019-06-08T09:59:04.642Z,84.20
2019-06-08T10:00:08.375Z,85.01
2019-06-08T10:01:03.815Z,84.82
2019-06-08T10:02:07.445Z,83.95
2019-06-08T10:03:04.317Z,83.95
2019-06-08T10:04:02.832Z,83.95
2019-06-08T10:05:04.005Z,83.58
2019-06-08T10:06:06.884Z,84.25
2019-06-08T10:07:02.656Z,83.95
2019-06-08T10:08:02.852Z,84.15
2019-06-08T10:09:02.788Z,84.25
2019-06-08T10:10:03.100Z,83.58
2019-06-08T10:11:04.379Z,83.95
2019-06-08T10:12:04.446Z,84.15
2019-06-08T10:13:04.802Z,84.05
2019-06-08T10:14:04.955Z,84.05
2019-06-08T10:15:02.853Z,83.95
2019-06-08T10:16:03.627Z,84.25
2019-06-08T10:17:03.596Z,84.15
2019-06-08T10:18:03.186Z,83.95
2019-06-08T10:19:03.872Z,83.95
2019-06-08T10:20:03.387Z,84.05
2019-06-08T10:21:03.444Z,83.95
2019-06-08T10:22:02.933Z,84.15
2019-06-08T10:23:05.095Z,85.11
2019-06-08T10:24:04.526Z,84.82
2019-06-08T10:25:04.471Z,84.63
2019-06-08T10:26:03.504Z,84.72
2019-06-08T10:27:03.442Z,84.82
2019-06-08T10:28:10.122Z,85.30
2019-06-08T10:29:04.120Z,85.39
2019-06-08T10:30:04.325Z,85.88
2019-06-08T10:31:03.352Z,85.49
2019-06-08T10:32:01.836Z,84.91
2019-06-08T10:33:03.485Z,84.91
2019-06-08T10:34:03.433Z,84.82
2019-06-08T10:35:03.619Z,84.82
2019-06-08T10:36:03.644Z,84.82
2019-06-08T10:37:04.903Z,84.82
2019-06-08T10:38:05.176Z,84.91
2019-06-08T10:39:03.750Z,84.86
2019-06-08T10:40:03.757Z,84.67
2019-06-08T10:41:08.612Z,85.25
2019-06-08T10:42:03.593Z,84.19
2019-06-08T10:43:03.400Z,84.19
2019-06-08T10:44:03.339Z,84.00
2019-06-08T10:45:05.210Z,84.14
2019-06-08T10:46:08.413Z,83.12
2019-06-08T10:47:03.395Z,82.78
2019-06-08T10:48:03.243Z,80.90
2019-06-08T10:49:01.949Z,78.83
2019-06-08T10:50:06.456Z,76.46
2019-06-08T10:51:03.826Z,74.63
2019-06-08T10:52:03.615Z,74.19
2019-06-08T10:53:04.075Z,73.42
2019-06-08T10:54:02.198Z,72.49
2019-06-08T10:55:04.865Z,70.92
2019-06-08T10:56:03.007Z,71.01
2019-06-08T10:57:03.917Z,70.24
2019-06-08T10:58:02.381Z,69.15
2019-06-08T10:59:04.744Z,70.62
2019-06-08T11:00:12.364Z,70.37
2019-06-08T11:01:03.978Z,70.81
2019-06-08T11:02:05.128Z,72.92
2019-06-08T11:03:03.353Z,72.67
2019-06-08T11:04:03.194Z,72.00
2019-06-08T11:05:04.554Z,72.83
2019-06-08T11:06:03.278Z,72.83
2019-06-08T11:07:06.969Z,74.13
2019-06-08T11:08:02.924Z,75.32
2019-06-08T11:09:05.435Z,74.65
2019-06-08T11:10:02.419Z,74.37
2019-06-08T11:11:02.769Z,74.65
2019-06-08T11:12:03.178Z,74.65
2019-06-08T11:13:05.108Z,76.19
2019-06-08T11:14:03.610Z,75.90
2019-06-08T11:15:03.175Z,76.39
2019-06-08T11:16:02.839Z,76.39
2019-06-08T11:17:02.814Z,75.42
2019-06-08T11:18:04.750Z,75.04
2019-06-08T11:19:03.004Z,74.65
2019-06-08T11:20:03.081Z,75.27
2019-06-08T11:21:02.410Z,73.83
2019-06-08T11:22:05.824Z,73.44
2019-06-08T11:23:02.452Z,73.79
2019-06-08T11:24:13.306Z,73.75
2019-06-08T11:25:02.495Z,74.62
2019-06-08T11:26:04.561Z,75.38
2019-06-08T11:27:03.402Z,76.15
2019-06-08T11:28:03.407Z,76.25
2019-06-08T11:29:02.927Z,76.25
2019-06-08T11:30:09.455Z,75.57
2019-06-08T11:31:01.931Z,75.77
2019-06-08T11:32:02.073Z,76.06
2019-06-08T11:33:02.092Z,75.77
2019-06-08T11:34:02.683Z,76.48
2019-06-08T11:35:02.104Z,75.62
2019-06-08T11:36:05.787Z,75.42
2019-06-08T11:37:03.237Z,75.27
2019-06-08T11:38:02.244Z,74.88
2019-06-08T11:39:02.512Z,75.62
2019-06-08T11:40:02.155Z,75.42
2019-06-08T11:41:04.326Z,75.52
2019-06-08T11:42:02.313Z,74.43
2019-06-08T11:43:02.266Z,75.90
2019-06-08T11:44:03.444Z,74.62
2019-06-08T11:45:02.281Z,75.38
2019-06-08T11:46:02.577Z,75.38
2019-06-08T11:47:02.521Z,75.52
2019-06-08T11:48:02.781Z,75.62
2019-06-08T11:49:05.011Z,75.13
2019-06-08T11:50:02.894Z,75.42
2019-06-08T11:51:02.560Z,75.32
2019-06-08T11:52:02.553Z,74.43
2019-06-08T11:53:03.655Z,74.62
2019-06-08T11:54:02.903Z,75.29
2019-06-08T11:55:03.745Z,76.44
2019-06-08T11:56:02.741Z,76.64
2019-06-08T11:57:02.845Z,76.64
2019-06-08T11:58:02.898Z,76.15
2019-06-08T11:59:03.051Z,77.17
2019-06-08T12:00:09.215Z,77.17
2019-06-08T12:01:03.481Z,77.08
2019-06-08T12:02:01.997Z,77.56
2019-06-08T12:03:02.232Z,78.70
2019-06-08T12:04:01.999Z,78.70
2019-06-08T12:05:02.007Z,78.70
2019-06-08T12:06:02.264Z,78.99
2019-06-08T12:07:02.127Z,78.67
2019-06-08T12:08:02.849Z,78.77
2019-06-08T12:09:02.683Z,79.47
2019-06-08T12:10:03.006Z,78.90
2019-06-08T12:11:03.754Z,78.32
2019-06-08T12:12:02.485Z,78.23
2019-06-08T12:13:02.561Z,77.65
2019-06-08T12:14:02.746Z,78.03
2019-06-08T12:15:02.985Z,78.61
2019-06-08T12:16:03.063Z,78.00
2019-06-08T12:17:03.420Z,78.38
2019-06-08T12:18:03.371Z,78.42
2019-06-08T12:19:04.113Z,78.32
2019-06-08T12:20:03.295Z,78.70
2019-06-08T12:21:02.027Z,78.32
2019-06-08T12:22:02.024Z,78.47
2019-06-08T12:23:02.025Z,78.19
2019-06-08T12:24:02.025Z,79.05
2019-06-08T12:25:02.061Z,78.77
2019-06-08T12:26:02.027Z,79.24
2019-06-08T12:27:10.128Z,79.63
2019-06-08T12:28:02.030Z,79.44
2019-06-08T12:29:02.032Z,79.47
2019-06-08T12:30:09.042Z,78.70
2019-06-08T12:31:02.031Z,77.69
2019-06-08T12:32:02.034Z,77.21
2019-06-08T12:33:02.033Z,77.31
2019-06-08T12:34:02.033Z,77.11
2019-06-08T12:35:02.035Z,77.69
2019-06-08T12:36:02.036Z,77.01
2019-06-08T12:37:02.039Z,77.01
2019-06-08T12:38:02.037Z,76.34
2019-06-08T12:39:02.039Z,76.86
2019-06-08T12:40:02.053Z,76.86
2019-06-08T12:41:02.042Z,76.52
2019-06-08T12:42:02.042Z,75.65
2019-06-08T12:43:02.044Z,75.17
2019-06-08T12:44:02.045Z,74.69
2019-06-08T12:45:02.048Z,74.25
2019-06-08T12:46:02.086Z,72.67
2019-06-08T12:47:02.066Z,72.67
2019-06-08T12:48:02.051Z,72.48
2019-06-08T12:49:02.092Z,73.09
2019-06-08T12:50:02.065Z,71.94
2019-06-08T12:51:02.056Z,71.71
2019-06-08T12:52:02.059Z,72.00
2019-06-08T12:53:02.059Z,72.42